EGPH/EDI METAR and TAF weather

Enter ICAO airport designator
Station Type Date Time Source
EGPH METAR 2024/04/17 18:20 UTC NOAA

EGPH 171820Z 09007KT CAVOK 08/01 Q1019


Station Type Date Time Source
EGPH Decoded METAR 2024/04/17 18:20 UTC NOAA

Edinburgh Airport, United Kingdom (EGPH) 55-57N 003-21W 0M
Apr 17, 2024 - 02:20 PM EDT / 2024.04.17 1820 UTC
Wind: from the E (090 degrees) at 8 MPH (7 KT):0
Visibility: greater than 7 mile(s):0
Temperature: 46 F (8 C)
Dew Point: 33 F (1 C)
Relative Humidity: 61%
Pressure (altimeter): 30.09 in. Hg (1019 hPa)
ob: EGPH 171820Z 09007KT CAVOK 08/01 Q1019
cycle: 18

Station Type Date Time Source
EGPH TAF 2024/04/17 18:15 UTC NOAA